createdAt,value
2023-04-25T00:01:49.530Z,0.50
2023-04-25T00:04:16.195Z,0.80
2023-04-25T00:06:42.863Z,0.67
2023-04-25T00:09:10.349Z,0.70
2023-04-25T00:11:37.962Z,0.70
2023-04-25T00:14:04.904Z,0.80
2023-04-25T00:16:34.083Z,0.70
2023-04-25T00:19:01.788Z,0.60
2023-04-25T00:21:28.754Z,0.53
2023-04-25T00:23:56.128Z,0.60
2023-04-25T00:26:22.591Z,0.80
2023-04-25T00:28:48.723Z,0.60
2023-04-25T00:31:15.419Z,0.60
2023-04-25T00:33:41.586Z,0.70
2023-04-25T00:36:08.834Z,0.70
2023-04-25T00:38:34.972Z,0.70
2023-04-25T00:41:01.441Z,0.73
2023-04-25T00:43:28.246Z,0.50
2023-04-25T00:45:56.082Z,0.70
2023-04-25T00:48:22.808Z,0.70
2023-04-25T00:50:54.664Z,0.90
2023-04-25T00:53:26.443Z,0.77
2023-04-25T00:55:53.517Z,0.90
2023-04-25T00:58:21.576Z,0.90
2023-04-25T01:00:50.381Z,0.80
2023-04-25T01:03:17.649Z,0.70
2023-04-25T01:05:44.328Z,1.00
2023-04-25T01:08:10.473Z,0.90
2023-04-25T01:10:37.233Z,0.87
2023-04-25T01:13:03.899Z,0.80
2023-04-25T01:15:30.318Z,0.90
2023-04-25T01:17:58.459Z,0.90
2023-04-25T01:20:25.220Z,0.77
2023-04-25T01:22:52.403Z,0.80
2023-04-25T01:25:19.888Z,0.90
2023-04-25T01:27:47.035Z,1.17
2023-04-25T01:30:13.779Z,1.27
2023-04-25T01:32:43.198Z,1.07
2023-04-25T01:35:11.478Z,0.93
2023-04-25T01:37:41.237Z,1.10
2023-04-25T01:40:12.383Z,0.87
2023-04-25T01:42:42.035Z,1.10
2023-04-25T01:45:09.574Z,1.00
2023-04-25T01:47:35.707Z,1.40
2023-04-25T01:50:03.518Z,1.33
2023-04-25T01:52:30.651Z,1.07
2023-04-25T01:54:59.826Z,1.13
2023-04-25T01:57:27.637Z,1.10
2023-04-25T02:00:07.190Z,1.17
2023-04-25T02:02:39.318Z,1.40
2023-04-25T02:05:12.970Z,1.33
2023-04-25T02:07:41.923Z,1.53
2023-04-25T02:10:09.076Z,1.10
2023-04-25T02:12:40.565Z,0.97
2023-04-25T02:15:25.390Z,1.10
2023-04-25T02:17:56.205Z,1.20
2023-04-25T02:20:24.464Z,1.40
2023-04-25T02:22:51.154Z,1.20
2023-04-25T02:25:20.229Z,1.20
2023-04-25T02:27:47.602Z,1.40
2023-04-25T02:30:14.551Z,1.20
2023-04-25T02:32:41.612Z,1.40
2023-04-25T02:35:09.805Z,1.50
2023-04-25T02:37:38.005Z,1.50
2023-04-25T02:40:05.338Z,1.20
2023-04-25T02:42:32.195Z,1.50
2023-04-25T02:44:58.602Z,1.40
2023-04-25T02:47:24.904Z,1.40
2023-04-25T02:49:51.312Z,1.40
2023-04-25T02:52:17.429Z,1.40
2023-04-25T02:54:47.323Z,1.60
2023-04-25T02:57:13.497Z,1.63
2023-04-25T02:59:39.860Z,1.63
2023-04-25T03:02:05.974Z,1.93
2023-04-25T03:04:33.693Z,2.13
2023-04-25T03:07:00.227Z,2.20
2023-04-25T03:09:26.882Z,1.73
2023-04-25T03:11:53.403Z,1.77
2023-04-25T03:14:20.428Z,2.00
2023-04-25T03:16:46.615Z,2.20
2023-04-25T03:19:13.044Z,2.07
2023-04-25T03:21:39.110Z,2.20
2023-04-25T03:24:05.659Z,2.13
2023-04-25T03:26:31.878Z,2.30
2023-04-25T03:28:58.408Z,2.70
2023-04-25T03:31:24.557Z,2.40
2023-04-25T03:33:51.378Z,2.40
2023-04-25T03:36:20.092Z,2.43
2023-04-25T03:38:46.757Z,2.03
2023-04-25T03:41:15.056Z,2.47
2023-04-25T03:43:44.803Z,2.00
2023-04-25T03:46:12.900Z,2.20
2023-04-25T03:48:40.478Z,2.10
2023-04-25T03:51:08.282Z,1.90
2023-04-25T03:53:38.228Z,2.20
2023-04-25T03:56:20.427Z,2.20
2023-04-25T03:58:50.809Z,2.00
2023-04-25T04:01:19.664Z,2.20
2023-04-25T04:03:46.318Z,2.47
2023-04-25T04:06:13.467Z,2.07
2023-04-25T04:08:42.527Z,1.83
2023-04-25T04:11:11.004Z,2.03
2023-04-25T04:13:37.411Z,2.13
2023-04-25T04:16:04.555Z,2.13
2023-04-25T04:18:33.428Z,2.37
2023-04-25T04:21:00.025Z,2.20
2023-04-25T04:23:29.098Z,2.40
2023-04-25T04:25:56.638Z,2.20
2023-04-25T04:28:42.431Z,2.60
2023-04-25T04:31:32.891Z,2.50
2023-04-25T04:34:01.946Z,2.43
2023-04-25T04:36:30.077Z,2.50
2023-04-25T04:38:57.280Z,2.47
2023-04-25T04:41:35.479Z,2.70
2023-04-25T04:44:15.498Z,2.30
2023-04-25T04:46:55.277Z,2.23
2023-04-25T04:49:34.412Z,2.33
2023-04-25T04:52:39.122Z,2.67
2023-04-25T04:55:24.037Z,2.20
2023-04-25T04:58:04.877Z,2.23
2023-04-25T05:00:51.602Z,2.57
2023-04-25T05:03:47.263Z,2.60
2023-04-25T05:06:42.148Z,2.70
2023-04-25T05:09:27.438Z,2.60
2023-04-25T05:12:11.884Z,2.40
2023-04-25T05:14:52.640Z,2.33
2023-04-25T05:17:41.415Z,2.60
2023-04-25T05:20:23.978Z,2.60
2023-04-25T05:22:50.292Z,2.43
2023-04-25T05:25:20.853Z,2.23
2023-04-25T05:28:13.712Z,2.80
2023-04-25T05:30:58.039Z,2.97
2023-04-25T05:33:30.441Z,2.30
2023-04-25T05:35:56.847Z,2.57
2023-04-25T05:38:25.107Z,2.27
2023-04-25T05:41:09.600Z,2.23
2023-04-25T05:43:47.336Z,2.23
2023-04-25T05:46:26.444Z,2.43
2023-04-25T05:49:19.767Z,2.90
2023-04-25T05:52:19.307Z,2.30
2023-04-25T05:54:56.511Z,2.60
2023-04-25T05:57:24.224Z,2.40
2023-04-25T05:59:51.063Z,2.27
2023-04-25T06:02:18.544Z,2.07
2023-04-25T06:04:45.479Z,2.40
2023-04-25T06:07:11.965Z,1.97
2023-04-25T06:09:39.425Z,2.40
2023-04-25T06:12:06.565Z,2.23
2023-04-25T06:14:34.007Z,2.23
2023-04-25T06:17:06.420Z,2.30
2023-04-25T06:19:33.653Z,2.70
2023-04-25T06:22:00.077Z,2.47
2023-04-25T06:24:26.528Z,2.00
2023-04-25T06:26:52.996Z,2.43
2023-04-25T06:29:19.587Z,2.20
2023-04-25T06:31:46.904Z,1.97
2023-04-25T06:34:13.560Z,2.10
2023-04-25T06:36:41.783Z,2.50
2023-04-25T06:39:11.504Z,2.30
2023-04-25T06:41:37.800Z,2.30
2023-04-25T06:44:07.088Z,2.20
2023-04-25T06:46:39.541Z,2.50
2023-04-25T06:49:05.966Z,2.57
2023-04-25T06:51:33.058Z,2.13
2023-04-25T06:54:00.200Z,2.43
2023-04-25T06:56:32.946Z,2.50
2023-04-25T06:59:05.255Z,2.47
2023-04-25T07:01:40.428Z,2.10
2023-04-25T07:04:15.054Z,2.33
2023-04-25T07:06:49.646Z,2.27
2023-04-25T07:09:19.967Z,2.90
2023-04-25T07:11:48.122Z,2.70
2023-04-25T07:14:15.667Z,2.70
2023-04-25T07:16:42.217Z,2.33
2023-04-25T07:19:09.105Z,2.63
2023-04-25T07:21:36.728Z,2.80
2023-04-25T07:24:04.777Z,2.57
2023-04-25T07:26:35.023Z,2.90
2023-04-25T07:29:23.226Z,2.60
2023-04-25T07:31:49.978Z,2.90
2023-04-25T07:34:16.466Z,2.50
2023-04-25T07:36:42.832Z,2.50
2023-04-25T07:39:09.560Z,2.30
2023-04-25T07:41:36.202Z,2.47
2023-04-25T07:44:03.108Z,2.80
2023-04-25T07:46:30.852Z,2.40
2023-04-25T07:48:57.595Z,3.00
2023-04-25T07:51:23.822Z,3.40
2023-04-25T07:53:52.666Z,3.20
2023-04-25T07:56:20.254Z,3.13
2023-04-25T07:58:48.256Z,2.83
2023-04-25T08:01:16.992Z,3.00
2023-04-25T08:03:56.576Z,3.00
2023-04-25T08:06:31.979Z,3.00
2023-04-25T08:09:07.746Z,2.97
2023-04-25T08:11:38.571Z,2.63
2023-04-25T08:14:06.457Z,2.67
2023-04-25T08:16:33.884Z,2.87
2023-04-25T08:19:01.530Z,2.33
2023-04-25T08:21:27.916Z,2.37
2023-04-25T08:23:56.810Z,2.83
2023-04-25T08:26:29.092Z,2.43
2023-04-25T08:28:55.467Z,2.80
2023-04-25T08:31:22.463Z,3.03
2023-04-25T08:34:07.678Z,2.70
2023-04-25T08:36:40.041Z,2.90
2023-04-25T08:39:23.807Z,2.80
2023-04-25T08:42:27.507Z,2.20
2023-04-25T08:44:55.212Z,2.23
2023-04-25T08:47:28.456Z,2.50
2023-04-25T08:49:57.132Z,2.37
2023-04-25T08:52:27.116Z,2.60
2023-04-25T08:54:54.823Z,2.63
2023-04-25T08:57:21.869Z,2.57
2023-04-25T08:59:49.475Z,2.90
2023-04-25T09:02:19.184Z,2.30
2023-04-25T09:04:49.923Z,2.20
2023-04-25T09:07:18.848Z,2.67
2023-04-25T09:09:44.930Z,2.47
2023-04-25T09:12:11.787Z,2.50
2023-04-25T09:14:37.928Z,2.90
2023-04-25T09:17:14.097Z,3.20
2023-04-25T09:19:46.707Z,2.60
2023-04-25T09:22:24.247Z,2.50
2023-04-25T09:24:51.481Z,2.53
2023-04-25T09:27:23.066Z,2.60
2023-04-25T09:30:02.479Z,2.30
2023-04-25T09:32:43.365Z,2.30
2023-04-25T09:35:10.635Z,2.77
2023-04-25T09:37:37.620Z,1.60
2023-04-25T09:40:26.608Z,2.20
2023-04-25T09:43:09.544Z,1.90
2023-04-25T09:45:45.784Z,2.00
2023-04-25T09:48:16.899Z,1.87
2023-04-25T09:50:43.265Z,2.53
2023-04-25T09:53:11.381Z,2.10
2023-04-25T09:55:53.068Z,2.37
2023-04-25T09:58:20.550Z,2.00
2023-04-25T10:00:47.680Z,2.27
2023-04-25T10:03:27.192Z,1.90
2023-04-25T10:06:13.175Z,2.30
2023-04-25T10:08:40.487Z,2.00
2023-04-25T10:11:08.753Z,1.93
2023-04-25T10:13:36.174Z,2.40
2023-04-25T10:16:05.119Z,2.13
2023-04-25T10:18:33.061Z,2.27
2023-04-25T10:21:04.948Z,2.07
2023-04-25T10:23:32.170Z,2.13
2023-04-25T10:25:59.121Z,2.10
2023-04-25T10:28:25.577Z,1.60
2023-04-25T10:31:03.334Z,1.87
2023-04-25T10:33:58.121Z,2.07
2023-04-25T10:36:27.454Z,2.27
2023-04-25T10:38:54.560Z,3.03
2023-04-25T10:41:23.007Z,2.43
2023-04-25T10:43:59.045Z,2.00
2023-04-25T10:46:27.315Z,2.20
2023-04-25T10:48:56.433Z,1.70
2023-04-25T10:51:24.661Z,2.10
2023-04-25T10:54:05.254Z,1.83
2023-04-25T10:56:33.297Z,2.00
2023-04-25T10:59:12.380Z,2.17
2023-04-25T11:01:42.777Z,1.90
2023-04-25T11:04:21.905Z,1.73
2023-04-25T11:07:05.915Z,1.93
2023-04-25T11:09:40.406Z,2.20
2023-04-25T11:12:09.454Z,2.40
2023-04-25T11:14:36.627Z,2.10
2023-04-25T11:17:03.072Z,2.23
2023-04-25T11:19:30.665Z,2.30
2023-04-25T11:21:57.941Z,2.13
2023-04-25T11:24:31.598Z,2.87
2023-04-25T11:27:06.157Z,2.70
2023-04-25T11:29:34.320Z,2.00
2023-04-25T11:32:01.468Z,2.17
2023-04-25T11:34:33.150Z,1.90
2023-04-25T11:37:03.485Z,1.97
2023-04-25T11:39:30.532Z,1.93
2023-04-25T11:41:57.492Z,2.10
2023-04-25T11:44:24.294Z,1.90
2023-04-25T11:46:50.443Z,2.30
2023-04-25T11:49:18.571Z,1.90
2023-04-25T11:51:46.846Z,2.00
2023-04-25T11:54:13.992Z,2.00
2023-04-25T11:56:44.531Z,2.10
2023-04-25T11:59:12.481Z,2.40
2023-04-25T12:01:47.957Z,2.03
2023-04-25T12:04:25.659Z,2.17
2023-04-25T12:06:56.172Z,2.07
2023-04-25T12:09:31.531Z,3.00
2023-04-25T12:11:59.700Z,2.33
2023-04-25T12:14:27.459Z,2.03
2023-04-25T12:16:57.642Z,2.07
2023-04-25T12:19:25.076Z,1.80
2023-04-25T12:21:58.002Z,2.10
2023-04-25T12:24:27.513Z,1.90
2023-04-25T12:27:02.581Z,1.80
2023-04-25T12:29:47.905Z,1.57
2023-04-25T12:32:15.682Z,1.67
2023-04-25T12:34:42.384Z,1.67
2023-04-25T12:37:08.777Z,1.53
2023-04-25T12:39:35.491Z,1.40
2023-04-25T12:42:02.582Z,2.00
2023-04-25T12:44:29.170Z,1.20
2023-04-25T12:46:55.650Z,1.43
2023-04-25T12:49:22.575Z,1.60
2023-04-25T12:51:48.671Z,1.80
2023-04-25T12:54:15.245Z,1.53
2023-04-25T12:56:42.281Z,1.20
2023-04-25T12:59:09.656Z,1.30
2023-04-25T13:01:36.949Z,1.20
2023-04-25T13:04:04.075Z,0.93
2023-04-25T13:06:31.220Z,2.43
2023-04-25T13:08:58.134Z,4.47
2023-04-25T13:11:24.346Z,6.77
2023-04-25T13:13:51.062Z,2.70
2023-04-25T13:16:17.851Z,3.97
2023-04-25T13:18:44.339Z,2.07
2023-04-25T13:21:11.704Z,1.67
2023-04-25T13:23:38.696Z,2.00
2023-04-25T13:26:05.118Z,2.43
2023-04-25T13:28:31.631Z,2.10
2023-04-25T13:30:58.313Z,1.80
2023-04-25T13:33:25.049Z,1.60
2023-04-25T13:35:54.209Z,2.10
2023-04-25T13:38:22.643Z,2.00
2023-04-25T13:40:52.569Z,2.07
2023-04-25T13:43:22.027Z,1.93
2023-04-25T13:45:49.515Z,2.07
2023-04-25T13:48:16.253Z,1.80
2023-04-25T13:50:42.508Z,1.33
2023-04-25T13:53:09.027Z,1.50
2023-04-25T13:55:37.045Z,1.23
2023-04-25T13:58:07.708Z,1.40
2023-04-25T14:00:43.494Z,1.23
2023-04-25T14:03:10.258Z,1.30
2023-04-25T14:05:41.468Z,1.37
2023-04-25T14:08:09.709Z,1.30
2023-04-25T14:10:36.150Z,1.33
2023-04-25T14:13:03.399Z,1.57
2023-04-25T14:15:33.476Z,1.40
2023-04-25T14:18:00.833Z,1.40
2023-04-25T14:20:27.620Z,1.40
2023-04-25T14:22:56.384Z,1.70
2023-04-25T14:25:23.230Z,1.43
2023-04-25T14:27:52.868Z,1.70
2023-04-25T14:30:20.606Z,1.73
2023-04-25T14:32:49.224Z,1.80
2023-04-25T14:35:15.660Z,1.87
2023-04-25T14:37:42.535Z,1.90
2023-04-25T14:40:10.872Z,2.20
2023-04-25T14:42:38.312Z,2.30
2023-04-25T14:45:07.498Z,1.30
2023-04-25T14:47:34.584Z,1.50
2023-04-25T14:50:01.959Z,1.27
2023-04-25T14:52:28.837Z,1.80
2023-04-25T14:54:56.084Z,1.80
2023-04-25T14:57:23.300Z,2.20
2023-04-25T14:59:49.824Z,2.30
2023-04-25T15:02:16.574Z,2.07
2023-04-25T15:04:43.295Z,2.00
2023-04-25T15:07:09.771Z,2.40
2023-04-25T15:09:35.921Z,2.33
2023-04-25T15:12:02.643Z,2.40
2023-04-25T15:14:29.126Z,6.13
2023-04-25T15:16:55.767Z,3.57
2023-04-25T15:19:22.414Z,2.60
2023-04-25T15:21:49.241Z,3.03
2023-04-25T15:24:16.449Z,7.67
2023-04-25T15:26:43.002Z,6.13
2023-04-25T15:29:09.877Z,4.10
2023-04-25T15:31:36.376Z,2.47
2023-04-25T15:34:02.691Z,2.47
2023-04-25T15:36:29.514Z,3.40
2023-04-25T15:38:56.021Z,3.07
2023-04-25T15:41:22.504Z,3.67
2023-04-25T15:43:48.604Z,3.47
2023-04-25T15:46:15.348Z,3.27
2023-04-25T15:48:41.621Z,5.37
2023-04-25T15:51:08.087Z,4.33
2023-04-25T15:53:34.198Z,3.57
2023-04-25T15:56:01.122Z,3.20
2023-04-25T15:58:27.242Z,3.37
2023-04-25T16:00:55.032Z,3.23
2023-04-25T16:03:21.635Z,3.07
2023-04-25T16:05:48.238Z,3.00
2023-04-25T16:08:14.733Z,2.77
2023-04-25T16:10:41.398Z,3.20
2023-04-25T16:13:07.593Z,3.10
2023-04-25T16:15:35.461Z,2.90
2023-04-25T16:18:02.682Z,3.30
2023-04-25T16:20:29.128Z,2.90
2023-04-25T16:22:55.273Z,2.87
2023-04-25T16:25:21.675Z,3.10
2023-04-25T16:27:48.508Z,3.43
2023-04-25T16:30:14.879Z,3.27
2023-04-25T16:32:43.242Z,3.03
2023-04-25T16:35:12.123Z,3.30
2023-04-25T16:37:38.695Z,4.03
2023-04-25T16:40:08.167Z,3.07
2023-04-25T16:42:35.543Z,3.83
2023-04-25T16:45:02.918Z,3.47
2023-04-25T16:47:29.382Z,3.83
2023-04-25T16:49:55.514Z,13.97
2023-04-25T16:52:22.967Z,6.03
2023-04-25T16:54:49.182Z,4.60
2023-04-25T16:57:15.801Z,5.67
2023-04-25T16:59:41.996Z,3.40
2023-04-25T17:02:12.142Z,3.03
2023-04-25T17:04:39.124Z,3.13
2023-04-25T17:07:06.044Z,3.57
2023-04-25T17:09:32.239Z,2.57
2023-04-25T17:11:58.734Z,2.23
2023-04-25T17:14:26.455Z,1.90
2023-04-25T17:16:53.037Z,2.77
2023-04-25T17:19:19.354Z,2.37
2023-04-25T17:21:45.885Z,2.57
2023-04-25T17:24:13.179Z,2.17
2023-04-25T17:26:39.642Z,2.00
2023-04-25T17:29:05.938Z,2.27
2023-04-25T17:31:32.606Z,2.60
2023-04-25T17:33:59.240Z,2.53
2023-04-25T17:36:25.711Z,2.63
2023-04-25T17:38:52.082Z,2.37
2023-04-25T17:41:20.152Z,2.70
2023-04-25T17:43:46.386Z,2.90
2023-04-25T17:46:12.862Z,3.30
2023-04-25T17:48:39.237Z,2.63
2023-04-25T17:51:06.808Z,2.50
2023-04-25T17:53:33.143Z,2.30
2023-04-25T17:55:59.519Z,3.07
2023-04-25T17:58:26.564Z,2.30
2023-04-25T18:00:53.146Z,2.30
2023-04-25T18:03:19.461Z,1.93
2023-04-25T18:05:46.048Z,2.10
2023-04-25T18:08:13.144Z,2.40
2023-04-25T18:10:39.802Z,1.83
2023-04-25T18:13:05.991Z,2.20
2023-04-25T18:15:32.340Z,2.53
2023-04-25T18:17:58.793Z,2.33
2023-04-25T18:20:26.538Z,2.30
2023-04-25T18:22:52.715Z,2.60
2023-04-25T18:25:19.200Z,3.33
2023-04-25T18:27:45.677Z,4.83
2023-04-25T18:30:13.326Z,4.30
2023-04-25T18:32:39.841Z,4.17
2023-04-25T18:35:09.289Z,5.20
2023-04-25T18:37:38.486Z,6.33
2023-04-25T18:40:09.469Z,5.03
2023-04-25T18:42:37.226Z,6.03
2023-04-25T18:45:04.835Z,4.73
2023-04-25T18:47:31.339Z,4.53
2023-04-25T18:49:58.237Z,4.93
2023-04-25T18:52:25.562Z,3.80
2023-04-25T18:54:53.044Z,3.90
2023-04-25T18:57:19.356Z,3.73
2023-04-25T18:59:45.914Z,2.80
2023-04-25T19:02:15.310Z,3.10
2023-04-25T19:04:42.843Z,3.17
2023-04-25T19:07:09.071Z,3.40
2023-04-25T19:09:38.208Z,4.40
2023-04-25T19:12:04.678Z,4.87
2023-04-25T19:14:32.666Z,5.30
2023-04-25T19:16:59.433Z,4.50
2023-04-25T19:19:26.920Z,4.43
2023-04-25T19:21:53.412Z,5.13
2023-04-25T19:24:20.088Z,5.77
2023-04-25T19:26:46.478Z,6.37
2023-04-25T19:29:14.930Z,7.70
2023-04-25T19:31:43.797Z,7.77
2023-04-25T19:34:11.561Z,6.27
2023-04-25T19:36:39.153Z,7.07
2023-04-25T19:39:06.455Z,7.07
2023-04-25T19:41:35.551Z,7.17
2023-04-25T19:44:06.606Z,8.33
2023-04-25T19:46:34.860Z,7.63
2023-04-25T19:49:01.729Z,7.83
2023-04-25T19:51:28.344Z,6.40
2023-04-25T19:53:55.822Z,6.07
2023-04-25T19:56:23.622Z,5.77
2023-04-25T19:58:50.598Z,5.00
2023-04-25T20:01:17.639Z,5.20
2023-04-25T20:03:44.799Z,5.07
2023-04-25T20:06:11.079Z,5.53
2023-04-25T20:08:37.945Z,4.80
2023-04-25T20:11:04.239Z,3.50
2023-04-25T20:13:30.934Z,2.83
2023-04-25T20:15:58.266Z,2.93
2023-04-25T20:18:26.373Z,3.67
2023-04-25T20:20:56.022Z,3.30
2023-04-25T20:23:22.791Z,3.77
2023-04-25T20:25:49.470Z,3.70
2023-04-25T20:28:16.392Z,7.30
2023-04-25T20:30:43.392Z,6.40
2023-04-25T20:33:10.628Z,4.60
2023-04-25T20:35:43.523Z,4.20
2023-04-25T20:38:13.121Z,3.53
2023-04-25T20:40:42.281Z,3.73
2023-04-25T20:43:11.307Z,4.40
2023-04-25T20:45:39.074Z,4.50
2023-04-25T20:48:05.789Z,4.47
2023-04-25T20:50:33.263Z,4.03
2023-04-25T20:53:03.113Z,3.47
2023-04-25T20:55:30.279Z,4.13
2023-04-25T20:57:59.568Z,4.00
2023-04-25T21:00:28.261Z,4.60
2023-04-25T21:02:56.212Z,3.50
2023-04-25T21:05:23.247Z,3.53
2023-04-25T21:07:53.649Z,3.53
2023-04-25T21:10:22.644Z,3.17
2023-04-25T21:12:51.198Z,2.87
2023-04-25T21:15:20.535Z,3.33
2023-04-25T21:17:49.312Z,3.50
2023-04-25T21:20:20.696Z,3.17
2023-04-25T21:22:49.370Z,3.90
2023-04-25T21:25:19.907Z,3.50
2023-04-25T21:27:48.689Z,3.43
2023-04-25T21:30:16.554Z,3.73
2023-04-25T21:32:44.974Z,3.93
2023-04-25T21:35:12.808Z,3.93
2023-04-25T21:37:40.614Z,3.70
2023-04-25T21:40:08.442Z,3.57
2023-04-25T21:42:35.564Z,4.33
2023-04-25T21:45:03.135Z,3.50
2023-04-25T21:47:29.650Z,3.87
2023-04-25T21:49:57.952Z,3.73
2023-04-25T21:52:26.656Z,3.37
2023-04-25T21:54:53.999Z,3.60
2023-04-25T21:57:23.437Z,3.20
2023-04-25T21:59:49.677Z,3.40
2023-04-25T22:02:16.795Z,2.80
2023-04-25T22:04:44.677Z,3.03
2023-04-25T22:07:11.558Z,3.37
2023-04-25T22:09:47.456Z,2.67
2023-04-25T22:12:18.042Z,2.63
2023-04-25T22:14:44.349Z,2.60
2023-04-25T22:17:11.457Z,3.13
2023-04-25T22:19:37.757Z,2.63
2023-04-25T22:22:04.105Z,2.87
2023-04-25T22:24:30.788Z,3.23
2023-04-25T22:26:57.203Z,3.03
2023-04-25T22:29:23.587Z,2.77
2023-04-25T22:31:50.089Z,2.67
2023-04-25T22:34:16.491Z,3.30
2023-04-25T22:36:43.126Z,3.07
2023-04-25T22:39:09.361Z,3.00
2023-04-25T22:41:35.830Z,3.23
2023-04-25T22:44:01.973Z,3.17
2023-04-25T22:46:28.424Z,3.17
2023-04-25T22:48:55.170Z,3.43
2023-04-25T22:51:21.502Z,3.20
2023-04-25T22:53:47.655Z,2.87
2023-04-25T22:56:14.649Z,2.93
2023-04-25T22:58:40.806Z,3.10
2023-04-25T23:01:07.946Z,2.57
2023-04-25T23:03:34.631Z,3.13
2023-04-25T23:06:01.150Z,2.47
2023-04-25T23:08:27.214Z,2.77
2023-04-25T23:10:55.057Z,3.00
2023-04-25T23:13:21.364Z,3.27
2023-04-25T23:15:48.053Z,2.93
2023-04-25T23:18:14.326Z,2.67
2023-04-25T23:20:40.897Z,3.30
2023-04-25T23:23:07.591Z,2.90
2023-04-25T23:25:39.081Z,2.90
2023-04-25T23:28:06.040Z,2.80
2023-04-25T23:30:32.504Z,2.60
2023-04-25T23:32:58.710Z,2.60
2023-04-25T23:35:26.902Z,2.67
2023-04-25T23:37:53.003Z,2.53
2023-04-25T23:40:19.356Z,2.70
2023-04-25T23:42:45.889Z,2.10
2023-04-25T23:45:13.580Z,2.70
2023-04-25T23:47:39.691Z,2.17
2023-04-25T23:50:07.278Z,1.87
2023-04-25T23:52:33.407Z,1.97
2023-04-25T23:54:59.783Z,2.57
2023-04-25T23:57:26.040Z,2.27
2023-04-25T23:59:52.575Z,2.10
